createdAt,value
2018-04-04T00:02:00.614Z,4.37
2018-04-04T00:04:26.695Z,5.20
2018-04-04T00:06:52.681Z,4.40
2018-04-04T00:09:18.939Z,6.63
2018-04-04T00:11:44.917Z,4.90
2018-04-04T00:14:11.472Z,4.70
2018-04-04T00:16:37.548Z,4.70
2018-04-04T00:19:04.021Z,4.47
2018-04-04T00:21:31.120Z,4.20
2018-04-04T00:23:57.120Z,4.50
2018-04-04T00:26:23.230Z,4.00
2018-04-04T00:28:49.316Z,4.30
2018-04-04T00:31:15.717Z,4.20
2018-04-04T00:33:41.940Z,4.80
2018-04-04T00:36:08.703Z,4.30
2018-04-04T00:38:34.770Z,4.00
2018-04-04T00:41:00.934Z,4.93
2018-04-04T00:43:26.963Z,5.00
2018-04-04T00:45:52.990Z,5.10
2018-04-04T00:48:19.901Z,4.20
2018-04-04T00:50:45.924Z,4.37
2018-04-04T00:53:12.009Z,4.50
2018-04-04T00:55:38.353Z,4.20
2018-04-04T00:58:04.442Z,4.30
2018-04-04T01:00:30.499Z,5.23
2018-04-04T01:02:56.519Z,4.80
2018-04-04T01:05:22.546Z,4.10
2018-04-04T01:07:48.555Z,6.20
2018-04-04T01:10:14.566Z,3.90
2018-04-04T01:12:40.711Z,4.20
2018-04-04T01:15:07.135Z,4.30
2018-04-04T01:17:33.167Z,4.23
2018-04-04T01:19:59.173Z,3.83
2018-04-04T01:22:25.918Z,4.33
2018-04-04T01:24:52.672Z,4.07
2018-04-04T01:27:18.723Z,4.30
2018-04-04T01:29:44.738Z,4.10
2018-04-04T01:32:11.040Z,4.43
2018-04-04T01:34:37.081Z,5.30
2018-04-04T01:37:03.209Z,5.20
2018-04-04T01:39:29.496Z,4.10
2018-04-04T01:41:55.483Z,4.53
2018-04-04T01:44:21.547Z,4.37
2018-04-04T01:46:47.622Z,3.87
2018-04-04T01:49:13.608Z,5.33
2018-04-04T01:51:41.898Z,4.73
2018-04-04T01:54:07.890Z,4.23
2018-04-04T01:56:33.896Z,4.30
2018-04-04T01:58:59.884Z,4.30
2018-04-04T02:01:26.053Z,4.80
2018-04-04T02:03:52.429Z,4.00
2018-04-04T02:06:18.428Z,4.63
2018-04-04T02:08:44.456Z,3.87
2018-04-04T02:11:10.497Z,4.50
2018-04-04T02:13:36.578Z,3.87
2018-04-04T02:16:02.603Z,4.40
2018-04-04T02:18:29.275Z,6.23
2018-04-04T02:20:55.682Z,4.53
2018-04-04T02:23:22.749Z,4.47
2018-04-04T02:25:48.799Z,5.13
2018-04-04T02:28:14.855Z,4.30
2018-04-04T02:30:41.192Z,4.40
2018-04-04T02:33:07.232Z,4.87
2018-04-04T02:35:33.250Z,4.90
2018-04-04T02:37:59.327Z,4.70
2018-04-04T02:40:25.409Z,4.70
2018-04-04T02:42:51.445Z,6.00
2018-04-04T02:45:17.749Z,4.60
2018-04-04T02:47:44.113Z,4.90
2018-04-04T02:50:10.832Z,5.17
2018-04-04T02:52:36.787Z,4.47
2018-04-04T02:55:02.789Z,4.73
2018-04-04T02:57:28.913Z,4.67
2018-04-04T02:59:55.005Z,5.63
2018-04-04T03:02:21.696Z,4.20
2018-04-04T03:04:48.000Z,4.73
2018-04-04T03:07:14.028Z,5.03
2018-04-04T03:09:40.078Z,5.00
2018-04-04T03:12:06.184Z,4.23
2018-04-04T03:14:32.259Z,4.47
2018-04-04T03:16:58.246Z,5.63
2018-04-04T03:19:24.250Z,4.70
2018-04-04T03:21:50.247Z,4.50
2018-04-04T03:24:17.198Z,4.83
2018-04-04T03:26:43.267Z,5.57
2018-04-04T03:29:10.124Z,5.00
2018-04-04T03:31:36.228Z,5.30
2018-04-04T03:34:02.652Z,4.50
2018-04-04T03:36:28.783Z,4.87
2018-04-04T03:38:54.775Z,4.50
2018-04-04T03:41:20.868Z,4.60
2018-04-04T03:43:46.898Z,4.47
2018-04-04T03:46:12.990Z,4.60
2018-04-04T03:48:39.434Z,4.60
2018-04-04T03:51:05.480Z,4.83
2018-04-04T03:53:31.485Z,5.17
2018-04-04T03:55:57.521Z,5.93
2018-04-04T03:58:24.029Z,4.53
2018-04-04T04:00:50.129Z,4.57
2018-04-04T04:03:16.134Z,5.23
2018-04-04T04:05:42.218Z,5.43
2018-04-04T04:08:08.314Z,5.17
2018-04-04T04:10:34.639Z,4.50
2018-04-04T04:13:00.718Z,4.57
2018-04-04T04:15:26.826Z,5.13
2018-04-04T04:17:52.849Z,5.27
2018-04-04T04:20:18.898Z,4.90
2018-04-04T04:22:53.828Z,5.70
2018-04-04T04:25:19.890Z,5.40
2018-04-04T04:27:46.358Z,5.43
2018-04-04T04:30:12.612Z,6.00
2018-04-04T04:32:38.610Z,4.80
2018-04-04T04:35:04.655Z,6.33
2018-04-04T04:37:30.977Z,5.83
2018-04-04T04:39:56.993Z,5.10
2018-04-04T04:42:22.952Z,5.97
2018-04-04T04:44:49.453Z,5.97
2018-04-04T04:47:15.418Z,6.17
2018-04-04T04:49:41.427Z,8.57
2018-04-04T04:52:07.412Z,5.87
2018-04-04T04:54:34.380Z,5.47
2018-04-04T04:57:00.495Z,7.50
2018-04-04T04:59:27.100Z,5.90
2018-04-04T05:01:53.148Z,5.47
2018-04-04T05:04:19.172Z,5.53
2018-04-04T05:06:45.512Z,6.47
2018-04-04T05:09:12.659Z,5.37
2018-04-04T05:11:39.649Z,5.63
2018-04-04T05:14:05.633Z,6.10
2018-04-04T05:16:32.562Z,6.30
2018-04-04T05:18:59.192Z,5.87
2018-04-04T05:21:25.240Z,7.30
2018-04-04T05:23:51.358Z,8.40
2018-04-04T05:26:17.375Z,7.40
2018-04-04T05:28:43.378Z,8.90
2018-04-04T05:31:09.452Z,9.33
2018-04-04T05:33:35.814Z,9.17
2018-04-04T05:36:01.970Z,9.70
2018-04-04T05:38:28.051Z,12.33
2018-04-04T05:40:54.792Z,8.57
2018-04-04T05:43:21.084Z,6.23
2018-04-04T05:45:48.039Z,6.80
2018-04-04T05:48:14.065Z,8.37
2018-04-04T05:50:41.223Z,7.83
2018-04-04T05:53:07.587Z,8.73
2018-04-04T05:55:34.502Z,12.00
2018-04-04T05:58:10.625Z,11.67
2018-04-04T06:00:36.908Z,12.93
2018-04-04T06:03:02.951Z,11.47
2018-04-04T06:05:29.860Z,11.50
2018-04-04T06:07:55.927Z,12.37
2018-04-04T06:10:22.254Z,8.77
2018-04-04T06:12:48.465Z,9.63
2018-04-04T06:15:14.508Z,8.17
2018-04-04T06:17:40.635Z,10.03
2018-04-04T06:20:06.942Z,9.53
2018-04-04T06:22:32.955Z,9.77
2018-04-04T06:24:59.018Z,7.50
2018-04-04T06:27:25.126Z,7.87
2018-04-04T06:29:51.263Z,8.17
2018-04-04T06:32:17.303Z,9.60
2018-04-04T06:34:43.904Z,23.23
2018-04-04T06:37:10.006Z,13.80
2018-04-04T06:39:36.063Z,12.13
2018-04-04T06:42:02.056Z,8.30
2018-04-04T06:44:31.628Z,15.10
2018-04-04T06:47:02.039Z,11.90
2018-04-04T06:49:30.150Z,8.87
2018-04-04T06:51:58.616Z,8.70
2018-04-04T06:54:25.056Z,21.17
2018-04-04T06:56:52.509Z,11.97
2018-04-04T06:59:18.558Z,17.40
2018-04-04T07:01:44.641Z,19.40
2018-04-04T07:04:11.008Z,11.50
2018-04-04T07:06:38.122Z,13.70
2018-04-04T07:09:05.002Z,34.67
2018-04-04T07:11:31.023Z,24.97
2018-04-04T07:13:59.898Z,16.90
2018-04-04T07:16:26.000Z,13.10
2018-04-04T07:18:52.065Z,37.37
2018-04-04T07:21:20.644Z,14.50
2018-04-04T07:23:47.759Z,18.40
2018-04-04T07:26:14.296Z,10.87
2018-04-04T07:28:41.704Z,7.83
2018-04-04T07:31:08.546Z,6.90
2018-04-04T07:33:35.564Z,7.50
2018-04-04T07:36:01.535Z,9.40
2018-04-04T07:38:27.784Z,8.00
2018-04-04T07:40:55.163Z,8.57
2018-04-04T07:43:22.163Z,7.47
2018-04-04T07:45:52.494Z,6.77
2018-04-04T07:48:18.534Z,7.93
2018-04-04T07:50:45.124Z,7.00
2018-04-04T07:53:11.238Z,7.70
2018-04-04T07:55:37.286Z,7.80
2018-04-04T07:58:03.451Z,7.03
2018-04-04T08:00:29.622Z,7.37
2018-04-04T08:02:56.742Z,9.93
2018-04-04T08:05:24.326Z,8.50
2018-04-04T08:07:50.326Z,7.77
2018-04-04T08:10:17.148Z,8.27
2018-04-04T08:12:43.174Z,7.90
2018-04-04T08:15:09.264Z,7.13
2018-04-04T08:17:35.696Z,7.73
2018-04-04T08:20:02.880Z,6.67
2018-04-04T08:22:28.900Z,6.87
2018-04-04T08:24:55.808Z,7.53
2018-04-04T08:27:22.033Z,6.80
2018-04-04T08:29:48.406Z,6.33
2018-04-04T08:32:15.096Z,6.77
2018-04-04T08:34:41.465Z,7.70
2018-04-04T08:37:07.886Z,6.77
2018-04-04T08:39:35.021Z,6.70
2018-04-04T08:42:02.553Z,7.50
2018-04-04T08:44:28.728Z,7.33
2018-04-04T08:46:55.820Z,6.83
2018-04-04T08:49:21.934Z,6.70
2018-04-04T08:51:48.023Z,7.30
2018-04-04T08:54:15.308Z,8.43
2018-04-04T08:56:41.341Z,7.50
2018-04-04T08:59:08.709Z,6.67
2018-04-04T09:01:34.831Z,6.17
2018-04-04T09:04:00.898Z,7.10
2018-04-04T09:06:26.980Z,6.37
2018-04-04T09:08:56.377Z,5.70
2018-04-04T09:11:21.865Z,6.60
2018-04-04T09:13:47.920Z,6.57
2018-04-04T09:16:14.051Z,6.97
2018-04-04T09:18:40.536Z,6.90
2018-04-04T09:21:06.699Z,6.53
2018-04-04T09:23:32.880Z,5.40
2018-04-04T09:25:58.942Z,5.40
2018-04-04T09:28:25.229Z,6.73
2018-04-04T09:30:51.281Z,5.70
2018-04-04T09:33:18.294Z,5.17
2018-04-04T09:35:44.857Z,5.77
2018-04-04T09:38:10.939Z,4.83
2018-04-04T09:40:37.112Z,4.60
2018-04-04T09:43:03.280Z,4.67
2018-04-04T09:45:29.568Z,4.43
2018-04-04T09:47:56.903Z,4.80
2018-04-04T09:50:23.706Z,4.33
2018-04-04T09:52:49.717Z,4.60
2018-04-04T09:55:15.779Z,4.80
2018-04-04T09:57:42.580Z,4.50
2018-04-04T10:00:09.644Z,6.90
2018-04-04T10:02:38.657Z,4.00
2018-04-04T10:05:04.685Z,4.93
2018-04-04T10:07:30.767Z,3.80
2018-04-04T10:09:57.004Z,3.93
2018-04-04T10:12:23.489Z,4.47
2018-04-04T10:14:49.766Z,3.80
2018-04-04T10:17:15.958Z,4.10
2018-04-04T10:19:42.425Z,3.83
2018-04-04T10:22:08.579Z,4.50
2018-04-04T10:24:35.010Z,5.53
2018-04-04T10:27:02.074Z,3.60
2018-04-04T10:29:28.207Z,4.47
2018-04-04T10:31:54.821Z,3.70
2018-04-04T10:34:20.985Z,4.20
2018-04-04T10:36:48.995Z,3.67
2018-04-04T10:39:16.380Z,4.03
2018-04-04T10:41:42.600Z,3.67
2018-04-04T10:44:08.854Z,4.20
2018-04-04T10:46:35.175Z,3.77
2018-04-04T10:49:02.306Z,4.20
2018-04-04T10:51:28.758Z,4.93
2018-04-04T10:53:55.876Z,4.13
2018-04-04T10:56:22.115Z,4.80
2018-04-04T10:58:49.055Z,4.23
2018-04-04T11:01:15.702Z,4.10
2018-04-04T11:03:42.253Z,4.53
2018-04-04T11:06:09.076Z,4.90
2018-04-04T11:08:35.244Z,4.83
2018-04-04T11:11:01.275Z,5.03
2018-04-04T11:13:27.416Z,4.10
2018-04-04T11:15:53.582Z,5.20
2018-04-04T11:18:19.698Z,4.43
2018-04-04T11:20:46.523Z,5.60
2018-04-04T11:23:12.687Z,4.73
2018-04-04T11:25:38.813Z,4.83
2018-04-04T11:28:05.992Z,6.20
2018-04-04T11:30:34.082Z,5.30
2018-04-04T11:33:00.553Z,5.23
2018-04-04T11:35:26.801Z,5.90
2018-04-04T11:37:52.855Z,6.03
2018-04-04T11:40:18.982Z,5.70
2018-04-04T11:42:45.533Z,5.40
2018-04-04T11:45:11.770Z,5.67
2018-04-04T11:47:37.807Z,4.87
2018-04-04T11:50:03.936Z,5.43
2018-04-04T11:52:30.014Z,5.37
2018-04-04T11:54:56.103Z,4.90
2018-04-04T11:57:22.356Z,8.40
2018-04-04T11:59:53.024Z,5.70
2018-04-04T12:02:19.882Z,5.17
2018-04-04T12:04:46.662Z,5.50
2018-04-04T12:07:12.938Z,5.10
2018-04-04T12:09:40.357Z,5.53
2018-04-04T12:12:07.748Z,5.10
2018-04-04T12:14:33.886Z,4.80
2018-04-04T12:17:00.056Z,5.40
2018-04-04T12:19:26.342Z,5.50
2018-04-04T12:21:52.790Z,4.70
2018-04-04T12:24:19.130Z,4.90
2018-04-04T12:26:45.863Z,5.00
2018-04-04T12:29:12.111Z,4.90
2018-04-04T12:31:38.591Z,5.20
2018-04-04T12:34:04.760Z,5.63
2018-04-04T12:36:30.980Z,5.10
2018-04-04T12:38:57.258Z,6.00
2018-04-04T12:41:25.400Z,5.20
2018-04-04T12:43:51.611Z,5.13
2018-04-04T12:46:17.650Z,5.43
2018-04-04T12:48:43.814Z,4.77
2018-04-04T12:51:09.868Z,6.57
2018-04-04T12:53:36.129Z,6.33
2018-04-04T12:56:02.358Z,6.67
2018-04-04T12:58:29.335Z,6.23
2018-04-04T13:00:56.398Z,5.90
2018-04-04T13:03:24.112Z,6.20
2018-04-04T13:05:51.107Z,6.13
2018-04-04T13:08:17.588Z,7.13
2018-04-04T13:10:45.010Z,7.27
2018-04-04T13:13:11.124Z,5.30
2018-04-04T13:15:37.256Z,6.07
2018-04-04T13:18:04.691Z,5.47
2018-04-04T13:20:30.794Z,5.77
2018-04-04T13:22:56.864Z,5.40
2018-04-04T13:25:24.274Z,5.73
2018-04-04T13:27:50.621Z,4.70
2018-04-04T13:30:16.737Z,4.27
2018-04-04T13:32:43.719Z,4.20
2018-04-04T13:35:09.849Z,4.60
2018-04-04T13:37:36.024Z,4.73
2018-04-04T13:40:02.412Z,4.17
2018-04-04T13:42:28.374Z,3.43
2018-04-04T13:44:54.384Z,3.80
2018-04-04T13:47:21.359Z,4.77
2018-04-04T13:49:47.392Z,4.50
2018-04-04T13:52:13.403Z,3.73
2018-04-04T13:54:39.465Z,3.17
2018-04-04T13:57:06.192Z,2.53
2018-04-04T13:59:32.145Z,2.57
2018-04-04T14:01:58.219Z,2.93
2018-04-04T14:04:24.313Z,1.90
2018-04-04T14:06:50.364Z,2.40
2018-04-04T14:09:16.702Z,2.03
2018-04-04T14:11:49.604Z,2.13
2018-04-04T14:14:15.682Z,1.87
2018-04-04T14:16:42.110Z,2.27
2018-04-04T14:19:08.199Z,1.80
2018-04-04T14:21:34.434Z,2.13
2018-04-04T14:24:00.467Z,2.00
2018-04-04T14:26:26.551Z,2.40
2018-04-04T14:28:52.598Z,2.27
2018-04-04T14:31:18.713Z,2.40
2018-04-04T14:33:44.804Z,2.70
2018-04-04T14:36:10.853Z,3.10
2018-04-04T14:38:37.881Z,3.30
2018-04-04T14:41:05.065Z,3.77
2018-04-04T14:43:31.100Z,2.77
2018-04-04T14:45:57.210Z,2.93
2018-04-04T14:48:23.386Z,3.07
2018-04-04T14:50:49.486Z,3.13
2018-04-04T14:53:15.676Z,3.10
2018-04-04T14:55:42.127Z,3.27
2018-04-04T14:58:09.230Z,3.30
2018-04-04T15:00:36.086Z,3.30
2018-04-04T15:03:03.087Z,2.80
2018-04-04T15:22:11.814Z,2.30
2018-04-04T15:24:38.039Z,2.40
2018-04-04T15:27:04.263Z,2.60
2018-04-04T15:29:30.395Z,2.30
2018-04-04T15:31:56.570Z,2.10
2018-04-04T15:34:22.816Z,3.13
2018-04-04T15:36:49.390Z,2.40
2018-04-04T15:39:16.767Z,2.70
2018-04-04T15:41:44.261Z,2.40
2018-04-04T15:44:10.353Z,2.90
2018-04-04T15:46:36.501Z,2.40
2018-04-04T15:49:02.636Z,2.60
2018-04-04T15:51:29.110Z,2.43
2018-04-04T15:53:55.378Z,2.70
2018-04-04T15:56:22.231Z,2.23
2018-04-04T15:58:48.316Z,2.60
2018-04-04T16:01:14.448Z,3.27
2018-04-04T16:03:40.647Z,2.73
2018-04-04T16:06:07.226Z,3.13
2018-04-04T16:08:33.299Z,3.23
2018-04-04T16:10:59.330Z,4.23
2018-04-04T16:13:25.614Z,2.50
2018-04-04T16:15:51.838Z,2.90
2018-04-04T16:18:17.971Z,2.57
2018-04-04T16:20:45.529Z,3.00
2018-04-04T16:23:11.700Z,2.50
2018-04-04T16:25:37.778Z,2.30
2018-04-04T16:28:04.066Z,2.30
2018-04-04T16:30:30.162Z,2.40
2018-04-04T16:32:56.347Z,3.27
2018-04-04T16:35:23.220Z,2.60
2018-04-04T16:37:49.444Z,2.37
2018-04-04T16:40:15.526Z,2.20
2018-04-04T16:42:41.954Z,2.67
2018-04-04T16:45:08.065Z,2.70
2018-04-04T16:47:35.146Z,2.47
2018-04-04T16:50:01.229Z,2.20
2018-04-04T16:52:27.318Z,2.63
2018-04-04T16:54:53.629Z,2.83
2018-04-04T16:57:19.708Z,2.30
2018-04-04T16:59:47.336Z,2.47
2018-04-04T17:02:14.967Z,2.40
2018-04-04T17:04:41.155Z,2.07
2018-04-04T17:07:07.731Z,3.43
2018-04-04T17:09:33.848Z,2.50
2018-04-04T17:11:59.916Z,2.77
2018-04-04T17:14:26.036Z,2.67
2018-04-04T17:16:51.958Z,2.37
2018-04-04T17:19:17.946Z,2.13
2018-04-04T17:21:43.986Z,2.30
2018-04-04T17:24:09.998Z,2.40
2018-04-04T17:26:36.116Z,2.17
2018-04-04T17:29:02.954Z,2.70
2018-04-04T17:31:29.120Z,2.50
2018-04-04T17:33:57.257Z,1.80
2018-04-04T17:36:23.340Z,2.60
2018-04-04T17:38:49.717Z,2.27
2018-04-04T17:41:15.795Z,3.10
2018-04-04T17:43:41.888Z,2.93
2018-04-04T17:46:09.155Z,3.00
2018-04-04T17:48:35.227Z,2.23
2018-04-04T17:51:01.270Z,2.60
2018-04-04T17:53:27.387Z,2.27
2018-04-04T17:55:53.578Z,2.70
2018-04-04T17:58:20.043Z,2.47
2018-04-04T18:00:46.199Z,2.13
2018-04-04T18:03:12.282Z,2.70
2018-04-04T18:05:39.315Z,2.20
2018-04-04T18:08:06.242Z,3.30
2018-04-04T18:10:32.788Z,3.00
2018-04-04T18:12:58.908Z,2.93
2018-04-04T18:15:24.994Z,2.57
2018-04-04T18:17:51.143Z,2.67
2018-04-04T18:20:17.158Z,2.37
2018-04-04T18:22:43.290Z,3.20
2018-04-04T18:25:09.256Z,2.70
2018-04-04T18:27:35.350Z,3.13
2018-04-04T18:30:01.511Z,3.17
2018-04-04T18:32:27.527Z,2.77
2018-04-04T18:34:53.652Z,2.90
2018-04-04T18:37:20.656Z,3.23
2018-04-04T18:39:46.672Z,2.47
2018-04-04T18:42:12.644Z,2.77
2018-04-04T18:44:38.729Z,3.07
2018-04-04T18:47:04.882Z,3.03
2018-04-04T18:49:30.945Z,2.80
2018-04-04T18:51:58.926Z,2.93
2018-04-04T18:54:25.758Z,3.20
2018-04-04T18:56:52.744Z,2.60
2018-04-04T19:16:02.888Z,2.60
2018-04-04T19:18:29.034Z,3.40
2018-04-04T19:20:55.016Z,3.30
2018-04-04T19:23:21.641Z,3.00
2018-04-04T19:25:47.636Z,2.60
2018-04-04T19:28:13.809Z,2.90
2018-04-04T19:30:39.796Z,2.37
2018-04-04T19:33:05.829Z,2.40
2018-04-04T19:35:33.005Z,2.77
2018-04-04T19:37:59.252Z,2.37
2018-04-04T19:40:25.637Z,2.30
2018-04-04T19:42:59.166Z,2.60
2018-04-04T19:45:25.214Z,2.80
2018-04-04T19:47:51.218Z,3.43
2018-04-04T19:50:17.373Z,2.40
2018-04-04T19:52:43.417Z,2.50
2018-04-04T19:55:11.048Z,2.53
2018-04-04T19:57:37.988Z,2.60
2018-04-04T20:00:05.451Z,2.60
2018-04-04T20:02:31.925Z,2.30
2018-04-04T20:04:58.607Z,2.70
2018-04-04T20:07:25.201Z,2.40
2018-04-04T20:09:52.400Z,2.57
2018-04-04T20:12:19.067Z,2.40
2018-04-04T20:14:45.126Z,2.80
2018-04-04T20:17:11.301Z,3.10
2018-04-04T20:19:37.613Z,2.60
2018-04-04T20:22:04.046Z,2.73
2018-04-04T20:24:30.106Z,2.67
2018-04-04T20:26:56.155Z,3.00
2018-04-04T20:29:22.904Z,2.67
2018-04-04T20:31:49.015Z,3.03
2018-04-04T20:34:15.849Z,3.03
2018-04-04T20:36:44.372Z,2.90
2018-04-04T20:39:10.401Z,2.60
2018-04-04T20:41:36.715Z,2.70
2018-04-04T20:44:02.783Z,3.23
2018-04-04T20:46:29.659Z,2.97
2018-04-04T20:48:56.092Z,3.17
2018-04-04T20:51:22.168Z,2.90
2018-04-04T20:53:49.123Z,3.50
2018-04-04T20:56:15.305Z,2.80
2018-04-04T20:58:41.329Z,3.33
2018-04-04T21:01:08.205Z,2.83
2018-04-04T21:03:34.795Z,3.10
2018-04-04T21:06:01.199Z,2.90
2018-04-04T21:08:28.136Z,3.20
2018-04-04T21:10:54.125Z,3.20
2018-04-04T21:13:20.181Z,3.50
2018-04-04T21:15:46.326Z,2.67
2018-04-04T21:18:13.541Z,2.90
2018-04-04T21:20:39.687Z,3.33
2018-04-04T21:23:06.747Z,3.10
2018-04-04T21:25:32.917Z,3.60
2018-04-04T21:27:58.953Z,3.20
2018-04-04T21:30:24.932Z,2.73
2018-04-04T21:32:50.995Z,2.93
2018-04-04T21:35:17.806Z,3.03
2018-04-04T21:37:43.895Z,3.10
2018-04-04T21:40:09.996Z,3.40
2018-04-04T21:42:36.067Z,3.00
2018-04-04T21:45:02.120Z,3.30
2018-04-04T21:47:28.164Z,3.20
2018-04-04T21:49:54.225Z,3.30
2018-04-04T21:52:20.515Z,3.13
2018-04-04T21:54:46.598Z,2.70
2018-04-04T21:57:12.685Z,3.33
2018-04-04T21:59:38.860Z,3.27
2018-04-04T22:02:05.551Z,2.90
2018-04-04T22:04:31.744Z,4.60
2018-04-04T22:06:57.828Z,8.17
2018-04-04T22:09:23.998Z,5.00
2018-04-04T22:11:52.063Z,3.03
2018-04-04T22:14:18.080Z,3.50
2018-04-04T22:16:44.255Z,3.00
2018-04-04T22:19:10.602Z,3.40
2018-04-04T22:21:36.662Z,2.70
2018-04-04T22:24:03.500Z,2.97
2018-04-04T22:26:30.351Z,3.07
2018-04-04T22:28:57.809Z,2.57
2018-04-04T22:31:23.931Z,4.67
2018-04-04T22:33:50.185Z,2.50
2018-04-04T22:36:16.351Z,3.60
2018-04-04T22:38:42.570Z,2.50
2018-04-04T22:41:08.637Z,3.87
2018-04-04T22:43:35.635Z,2.63
2018-04-04T22:46:02.435Z,2.90
2018-04-04T22:48:28.557Z,3.20
2018-04-04T22:50:55.544Z,2.57
2018-04-04T22:53:21.666Z,2.70
2018-04-04T22:55:47.768Z,2.63
2018-04-04T22:58:13.996Z,2.70
2018-04-04T23:00:40.102Z,2.80
2018-04-04T23:03:07.562Z,2.50
2018-04-04T23:05:33.635Z,3.00
2018-04-04T23:07:59.758Z,2.90
2018-04-04T23:10:25.898Z,2.33
2018-04-04T23:12:52.237Z,2.87
2018-04-04T23:15:18.386Z,2.67
2018-04-04T23:17:44.560Z,2.90
2018-04-04T23:20:10.598Z,3.53
2018-04-04T23:22:36.743Z,2.70
2018-04-04T23:25:02.846Z,2.40
2018-04-04T23:27:28.939Z,2.63
2018-04-04T23:29:54.996Z,2.50
2018-04-04T23:32:21.164Z,2.60
2018-04-04T23:34:47.218Z,2.53
2018-04-04T23:37:13.723Z,2.93
2018-04-04T23:39:39.868Z,2.53
2018-04-04T23:42:08.487Z,3.93
2018-04-04T23:44:34.684Z,2.70
2018-04-04T23:47:04.122Z,2.90
2018-04-04T23:49:30.217Z,3.20
2018-04-04T23:51:56.215Z,3.20
2018-04-04T23:54:22.256Z,2.70
2018-04-04T23:56:48.422Z,2.63
2018-04-04T23:59:14.478Z,2.67
